createdAt,value
2018-12-21T00:01:06.843Z,100233.91
2018-12-21T00:03:39.563Z,100229.97
2018-12-21T00:06:12.288Z,100218.73
2018-12-21T00:08:44.854Z,100216.14
2018-12-21T00:11:17.555Z,100214.72
2018-12-21T00:13:50.236Z,100217.17
2018-12-21T00:16:22.853Z,100212.16
2018-12-21T00:18:55.657Z,100215.44
2018-12-21T00:21:28.268Z,100212.00
2018-12-21T00:24:00.941Z,100209.80
2018-12-21T00:26:33.980Z,100195.23
2018-12-21T00:29:06.621Z,100197.52
2018-12-21T00:31:45.154Z,100188.12
2018-12-21T00:34:23.711Z,100181.45
2018-12-21T00:37:02.356Z,100189.80
2018-12-21T00:39:40.844Z,100187.38
2018-12-21T00:42:15.949Z,100189.34
2018-12-21T00:44:51.046Z,100189.67
2018-12-21T00:47:24.133Z,100189.28
2018-12-21T00:49:57.249Z,100184.75
2018-12-21T00:52:30.051Z,100183.12
2018-12-21T00:55:03.050Z,100179.61
2018-12-21T00:57:36.147Z,100177.06
2018-12-21T01:00:15.937Z,100183.34
2018-12-21T01:02:48.585Z,100180.55
2018-12-21T01:05:21.499Z,100181.89
2018-12-21T01:07:54.536Z,100176.20
2018-12-21T01:10:27.305Z,100179.16
2018-12-21T01:13:00.531Z,100180.23
2018-12-21T01:15:33.271Z,100178.53
2018-12-21T01:18:06.107Z,100180.55
2018-12-21T01:20:38.942Z,100176.55
2018-12-21T01:23:12.153Z,100176.80
2018-12-21T01:25:44.912Z,100179.91
2018-12-21T01:28:17.999Z,100175.70
2018-12-21T01:30:50.967Z,100181.38
2018-12-21T01:33:23.749Z,100173.56
2018-12-21T01:35:56.346Z,100173.80
2018-12-21T01:38:29.237Z,100180.88
2018-12-21T01:41:02.169Z,100184.20
2018-12-21T01:43:35.315Z,100167.93
2018-12-21T01:46:07.916Z,100177.43
2018-12-21T01:48:41.042Z,100178.53
2018-12-21T01:51:13.639Z,100170.24
2018-12-21T01:53:46.332Z,100159.83
2018-12-21T01:56:18.945Z,100175.95
2018-12-21T01:58:51.794Z,100160.28
2018-12-21T02:01:24.431Z,100162.97
2018-12-21T02:03:57.039Z,100171.64
2018-12-21T02:06:29.763Z,100167.62
2018-12-21T02:09:02.521Z,100162.88
2018-12-21T02:11:35.109Z,100158.10
2018-12-21T02:14:07.924Z,100164.36
2018-12-21T02:16:40.527Z,100160.85
2018-12-21T02:19:13.322Z,100159.70
2018-12-21T02:21:46.010Z,100158.80
2018-12-21T02:24:19.488Z,100153.86
2018-12-21T02:26:52.083Z,100152.68
2018-12-21T02:29:24.708Z,100152.07
2018-12-21T02:31:57.485Z,100158.10
2018-12-21T02:34:30.264Z,100154.72
2018-12-21T02:37:02.874Z,100150.33
2018-12-21T02:39:35.630Z,100154.20
2018-12-21T02:42:08.231Z,100147.41
2018-12-21T02:44:40.924Z,100151.41
2018-12-21T02:47:13.536Z,100137.72
2018-12-21T02:49:46.292Z,100149.81
2018-12-21T02:52:18.917Z,100139.55
2018-12-21T02:54:51.573Z,100146.26
2018-12-21T02:57:24.177Z,100145.44
2018-12-21T02:59:57.056Z,100147.06
2018-12-21T03:02:29.682Z,100143.75
2018-12-21T03:05:02.403Z,100142.37
2018-12-21T03:07:34.984Z,100134.02
2018-12-21T03:10:07.654Z,100132.69
2018-12-21T03:12:40.313Z,100128.70
2018-12-21T03:15:12.984Z,100119.03
2018-12-21T03:17:45.609Z,100120.55
2018-12-21T03:20:18.263Z,100125.41
2018-12-21T03:22:50.849Z,100125.98
2018-12-21T03:25:23.512Z,100123.06
2018-12-21T03:27:56.089Z,100116.69
2018-12-21T03:30:28.735Z,100105.78
2018-12-21T03:33:01.446Z,100106.55
2018-12-21T03:35:34.147Z,100106.42
2018-12-21T03:38:06.742Z,100104.63
2018-12-21T03:40:39.488Z,100099.84
2018-12-21T03:43:12.083Z,100098.02
2018-12-21T03:45:45.305Z,100093.80
2018-12-21T03:48:17.901Z,100090.03
2018-12-21T03:50:50.523Z,100087.03
2018-12-21T03:53:23.146Z,100077.30
2018-12-21T03:55:55.860Z,100070.47
2018-12-21T03:58:28.728Z,100065.45
2018-12-21T04:01:01.525Z,100063.93
2018-12-21T04:03:34.122Z,100054.05
2018-12-21T04:06:06.886Z,100057.16
2018-12-21T04:08:39.468Z,100063.67
2018-12-21T04:11:12.133Z,100048.75
2018-12-21T04:13:44.798Z,100056.15
2018-12-21T04:16:17.419Z,100050.61
2018-12-21T04:18:50.000Z,100051.44
2018-12-21T04:21:22.633Z,100042.12
2018-12-21T04:23:55.199Z,100031.17
2018-12-21T04:26:27.826Z,100037.10
2018-12-21T04:29:00.451Z,100032.84
2018-12-21T04:31:33.080Z,100025.24
2018-12-21T04:34:05.696Z,100020.66
2018-12-21T04:36:38.315Z,100019.06
2018-12-21T04:39:10.924Z,100021.05
2018-12-21T04:41:43.544Z,100012.82
2018-12-21T04:44:16.121Z,100014.91
2018-12-21T04:46:48.831Z,100011.16
2018-12-21T04:49:21.444Z,100009.38
2018-12-21T04:51:54.083Z,100006.52
2018-12-21T04:54:26.667Z,100002.38
2018-12-21T04:56:59.355Z,100008.61
2018-12-21T04:59:31.939Z,99998.09
2018-12-21T05:02:04.650Z,99998.48
2018-12-21T05:04:37.239Z,99988.83
2018-12-21T05:07:12.504Z,99984.29
2018-12-21T05:09:44.465Z,99971.94
2018-12-21T05:12:17.142Z,99970.28
2018-12-21T05:14:49.726Z,99965.19
2018-12-21T05:17:22.577Z,99965.97
2018-12-21T05:22:52.224Z,99961.22
2018-12-21T05:25:22.611Z,99956.13
2018-12-21T05:27:55.346Z,99951.61
2018-12-21T05:30:27.954Z,99955.23
2018-12-21T05:33:00.571Z,99950.52
2018-12-21T05:35:33.260Z,99948.55
2018-12-21T05:38:05.910Z,99943.03
2018-12-21T05:40:38.502Z,99937.33
2018-12-21T05:43:11.127Z,99924.95
2018-12-21T05:45:43.713Z,99933.51
2018-12-21T05:48:16.415Z,99922.22
2018-12-21T05:50:48.985Z,99919.05
2018-12-21T05:53:21.778Z,99923.58
2018-12-21T05:55:54.369Z,99913.05
2018-12-21T05:58:27.046Z,99903.89
2018-12-21T06:00:59.648Z,99907.01
2018-12-21T06:03:32.258Z,99902.92
2018-12-21T06:06:04.838Z,99895.36
2018-12-21T06:08:37.448Z,99885.79
2018-12-21T06:11:10.029Z,99885.34
2018-12-21T06:13:42.690Z,99886.31
2018-12-21T06:16:15.422Z,99882.09
2018-12-21T06:18:48.118Z,99866.05
2018-12-21T06:21:20.722Z,99862.23
2018-12-21T06:23:53.340Z,99862.00
2018-12-21T06:26:25.987Z,99862.31
2018-12-21T06:28:58.679Z,99859.53
2018-12-21T06:31:31.252Z,99847.56
2018-12-21T06:34:04.073Z,99846.19
2018-12-21T06:36:36.665Z,99843.97
2018-12-21T06:39:09.293Z,99846.88
2018-12-21T06:41:41.879Z,99848.97
2018-12-21T06:44:14.586Z,99847.02
2018-12-21T06:46:47.203Z,99843.11
2018-12-21T06:49:19.834Z,99837.58
2018-12-21T06:51:52.488Z,99826.42
2018-12-21T06:54:25.124Z,99824.61
2018-12-21T06:56:57.732Z,99812.01
2018-12-21T06:59:30.381Z,99806.24
2018-12-21T07:02:02.991Z,99804.75
2018-12-21T07:04:35.692Z,99808.13
2018-12-21T07:07:08.513Z,99808.05
2018-12-21T07:09:41.220Z,99805.73
2018-12-21T07:12:13.849Z,99802.34
2018-12-21T07:14:46.578Z,99793.80
2018-12-21T07:17:19.157Z,99781.22
2018-12-21T07:19:51.773Z,99774.41
2018-12-21T07:22:24.378Z,99769.23
2018-12-21T07:24:58.064Z,99766.95
2018-12-21T07:27:30.661Z,99759.92
2018-12-21T07:30:04.154Z,99750.12
2018-12-21T07:32:36.779Z,99743.69
2018-12-21T07:35:09.548Z,99743.61
2018-12-21T07:37:42.273Z,99730.87
2018-12-21T07:40:15.039Z,99728.41
2018-12-21T07:42:47.615Z,99725.75
2018-12-21T07:45:20.818Z,99722.30
2018-12-21T07:47:53.412Z,99729.48
2018-12-21T07:50:26.040Z,99726.60
2018-12-21T07:52:58.654Z,99724.02
2018-12-21T07:55:31.286Z,99726.66
2018-12-21T07:58:03.889Z,99720.20
2018-12-21T08:00:36.513Z,99714.28
2018-12-21T08:03:09.135Z,99714.00
2018-12-21T08:05:41.894Z,99704.61
2018-12-21T08:08:14.485Z,99704.17
2018-12-21T08:10:47.113Z,99703.59
2018-12-21T08:13:19.740Z,99697.91
2018-12-21T08:15:52.448Z,99689.53
2018-12-21T08:18:25.025Z,99688.70
2018-12-21T08:20:57.745Z,99682.41
2018-12-21T08:23:30.353Z,99681.11
2018-12-21T08:26:03.058Z,99677.37
2018-12-21T08:28:35.643Z,99671.92
2018-12-21T08:31:08.264Z,99673.08
2018-12-21T08:33:40.866Z,99667.56
2018-12-21T08:36:13.482Z,99660.81
2018-12-21T08:38:46.103Z,99654.66
2018-12-21T08:41:18.759Z,99657.71
2018-12-21T08:43:51.416Z,99653.89
2018-12-21T08:46:24.194Z,99648.88
2018-12-21T08:48:57.742Z,99642.48
2018-12-21T08:51:30.638Z,99626.95
2018-12-21T08:54:03.260Z,99627.34
2018-12-21T08:56:35.939Z,99623.39
2018-12-21T08:59:08.547Z,99614.99
2018-12-21T09:01:41.297Z,99613.53
2018-12-21T09:04:13.881Z,99611.97
2018-12-21T09:06:46.560Z,99611.78
2018-12-21T09:09:20.432Z,99606.59
2018-12-21T09:11:53.444Z,99597.53
2018-12-21T09:14:26.065Z,99586.29
2018-12-21T09:16:58.982Z,99589.41
2018-12-21T09:19:31.689Z,99587.75
2018-12-21T09:22:05.096Z,99582.17
2018-12-21T09:24:37.797Z,99570.38
2018-12-21T09:27:10.539Z,99570.48
2018-12-21T09:29:43.115Z,99567.45
2018-12-21T09:32:15.737Z,99566.18
2018-12-21T09:34:48.329Z,99560.34
2018-12-21T09:37:21.030Z,99553.97
2018-12-21T09:39:53.607Z,99546.52
2018-12-21T09:42:26.233Z,99535.70
2018-12-21T09:44:58.823Z,99522.05
2018-12-21T09:47:31.495Z,99521.46
2018-12-21T09:50:05.227Z,99505.27
2018-12-21T09:52:37.993Z,99499.16
2018-12-21T09:55:10.588Z,99495.73
2018-12-21T09:57:43.317Z,99476.15
2018-12-21T10:00:15.896Z,99468.19
2018-12-21T10:02:48.612Z,99455.48
2018-12-21T10:05:21.255Z,99444.66
2018-12-21T10:07:53.873Z,99436.19
2018-12-21T10:10:26.488Z,99426.50
2018-12-21T10:12:59.117Z,99428.73
2018-12-21T10:15:32.154Z,99415.92
2018-12-21T10:18:05.006Z,99400.01
2018-12-21T10:20:37.976Z,99402.66
2018-12-21T10:23:10.594Z,99391.53
2018-12-21T10:25:43.475Z,99386.14
2018-12-21T10:28:16.257Z,99380.18
2018-12-21T10:30:48.967Z,99371.36
2018-12-21T10:33:21.902Z,99368.19
2018-12-21T10:35:54.503Z,99358.25
2018-12-21T10:38:27.158Z,99353.89
2018-12-21T10:40:59.758Z,99342.34
2018-12-21T10:43:32.483Z,99340.84
2018-12-21T10:46:05.069Z,99338.19
2018-12-21T10:48:37.747Z,99331.25
2018-12-21T10:51:10.340Z,99320.86
2018-12-21T10:53:46.572Z,99314.73
2018-12-21T10:56:17.747Z,99313.28
2018-12-21T10:58:50.347Z,99301.80
2018-12-21T11:01:22.945Z,99300.15
2018-12-21T11:03:55.587Z,99293.55
2018-12-21T11:06:28.340Z,99278.09
2018-12-21T11:09:00.962Z,99270.81
2018-12-21T11:11:33.654Z,99270.36
2018-12-21T11:14:06.305Z,99256.52
2018-12-21T11:16:38.901Z,99239.42
2018-12-21T11:19:11.577Z,99241.86
2018-12-21T11:21:44.163Z,99231.28
2018-12-21T11:24:16.973Z,99213.67
2018-12-21T11:26:49.634Z,99202.89
2018-12-21T11:29:22.267Z,99194.17
2018-12-21T11:31:54.865Z,99187.94
2018-12-21T11:34:27.521Z,99177.95
2018-12-21T11:37:00.139Z,99178.59
2018-12-21T11:39:32.926Z,99171.36
2018-12-21T11:42:05.555Z,99170.09
2018-12-21T11:44:38.337Z,99158.89
2018-12-21T11:47:10.945Z,99155.25
2018-12-21T11:49:43.662Z,99141.75
2018-12-21T11:52:16.268Z,99127.14
2018-12-21T11:54:48.889Z,99127.02
2018-12-21T11:57:22.226Z,99115.47
2018-12-21T11:59:54.954Z,99118.64
2018-12-21T12:02:27.533Z,99105.31
2018-12-21T12:05:00.278Z,99097.73
2018-12-21T12:07:32.896Z,99100.11
2018-12-21T12:10:06.910Z,99095.26
2018-12-21T12:12:39.526Z,99091.03
2018-12-21T12:15:12.245Z,99082.23
2018-12-21T12:17:44.853Z,99071.20
2018-12-21T12:20:17.607Z,99067.62
2018-12-21T12:22:50.201Z,99055.52
2018-12-21T12:25:22.848Z,99047.09
2018-12-21T12:27:55.425Z,99035.70
2018-12-21T12:30:28.063Z,99030.35
2018-12-21T12:33:00.640Z,99023.52
2018-12-21T12:35:33.343Z,99016.48
2018-12-21T12:38:05.932Z,99008.47
2018-12-21T12:40:38.823Z,98999.92
2018-12-21T12:43:11.411Z,98999.30
2018-12-21T12:45:44.101Z,98994.70
2018-12-21T12:48:16.709Z,98984.42
2018-12-21T12:50:49.467Z,98988.55
2018-12-21T12:53:22.044Z,98975.41
2018-12-21T12:55:54.662Z,98958.14
2018-12-21T12:58:27.418Z,98958.44
2018-12-21T13:01:00.254Z,98956.30
2018-12-21T13:03:33.048Z,98949.30
2018-12-21T13:06:05.981Z,98949.98
2018-12-21T13:08:38.984Z,98934.28
2018-12-21T13:11:11.891Z,98930.27
2018-12-21T13:13:44.688Z,98923.36
2018-12-21T13:16:17.419Z,98909.17
2018-12-21T13:18:50.073Z,98912.68
2018-12-21T13:21:22.720Z,98908.32
2018-12-21T13:23:55.301Z,98900.61
2018-12-21T13:26:28.021Z,98894.28
2018-12-21T13:29:00.648Z,98884.27
2018-12-21T13:31:33.276Z,98879.38
2018-12-21T13:34:05.978Z,98873.83
2018-12-21T13:36:38.659Z,98868.19
2018-12-21T13:39:11.253Z,98868.88
2018-12-21T13:41:43.970Z,98856.73
2018-12-21T13:44:16.569Z,98846.39
2018-12-21T13:46:49.189Z,98837.97
2018-12-21T13:49:21.840Z,98833.69
2018-12-21T13:51:54.509Z,98823.48
2018-12-21T13:54:27.149Z,98826.09
2018-12-21T13:57:00.002Z,98822.89
2018-12-21T13:59:33.668Z,98813.08
2018-12-21T14:02:06.306Z,98806.98
2018-12-21T14:04:38.894Z,98806.53
2018-12-21T14:07:11.582Z,98805.79
2018-12-21T14:09:44.232Z,98800.53
2018-12-21T14:12:17.125Z,98801.83
2018-12-21T14:14:49.728Z,98798.80
2018-12-21T14:17:22.451Z,98786.36
2018-12-21T14:19:59.919Z,98787.09
2018-12-21T14:22:32.920Z,98785.62
2018-12-21T14:25:06.119Z,98783.19
2018-12-21T14:27:38.733Z,98768.40
2018-12-21T14:30:11.317Z,98760.67
2018-12-21T14:32:44.131Z,98773.14
2018-12-21T14:35:16.764Z,98777.12
2018-12-21T14:37:49.423Z,98778.25
2018-12-21T14:40:22.067Z,98770.73
2018-12-21T14:42:54.669Z,98764.80
2018-12-21T14:45:27.282Z,98764.88
2018-12-21T14:47:59.999Z,98763.25
2018-12-21T14:50:32.724Z,98759.41
2018-12-21T14:53:05.358Z,98754.31
2018-12-21T14:55:37.948Z,98752.64
2018-12-21T14:58:10.610Z,98749.78
2018-12-21T15:00:43.281Z,98755.59
2018-12-21T15:03:16.003Z,98755.72
2018-12-21T15:05:48.597Z,98751.84
2018-12-21T15:08:21.394Z,98730.87
2018-12-21T15:10:54.031Z,98728.25
2018-12-21T15:13:27.285Z,98728.39
2018-12-21T15:15:59.939Z,98723.22
2018-12-21T15:18:32.556Z,98720.94
2018-12-21T15:21:05.264Z,98714.41
2018-12-21T15:23:37.902Z,98714.47
2018-12-21T15:26:10.497Z,98715.89
2018-12-21T15:28:43.289Z,98697.23
2018-12-21T15:31:15.879Z,98685.20
2018-12-21T15:33:48.757Z,98727.27
2018-12-21T15:36:21.362Z,98727.63
2018-12-21T15:38:54.054Z,98705.86
2018-12-21T15:41:26.660Z,98700.00
2018-12-21T15:43:59.285Z,98695.92
2018-12-21T15:46:31.917Z,98667.02
2018-12-21T15:49:04.692Z,98708.23
2018-12-21T15:51:37.293Z,98707.87
2018-12-21T15:54:09.911Z,98701.14
2018-12-21T15:56:42.528Z,98705.59
2018-12-21T15:59:15.178Z,98699.49
2018-12-21T16:01:47.792Z,98697.18
2018-12-21T16:04:20.596Z,98693.88
2018-12-21T16:06:53.257Z,98696.63
2018-12-21T16:09:25.968Z,98693.41
2018-12-21T16:11:58.663Z,98683.89
2018-12-21T16:14:34.544Z,98684.19
2018-12-21T16:17:05.935Z,98682.65
2018-12-21T16:19:38.789Z,98681.73
2018-12-21T16:22:11.376Z,98674.98
2018-12-21T16:24:43.991Z,98666.03
2018-12-21T16:27:16.588Z,98675.41
2018-12-21T16:29:49.206Z,98665.96
2018-12-21T16:32:21.835Z,98668.84
2018-12-21T16:34:54.497Z,98670.98
2018-12-21T16:37:27.101Z,98680.16
2018-12-21T16:39:59.731Z,98675.72
2018-12-21T16:42:32.329Z,98673.73
2018-12-21T16:45:07.554Z,98670.02
2018-12-21T16:47:40.162Z,98662.06
2018-12-21T16:50:12.932Z,98664.17
2018-12-21T16:52:45.517Z,98657.95
2018-12-21T16:55:18.211Z,98656.50
2018-12-21T16:57:50.788Z,98658.06
2018-12-21T17:00:23.431Z,98657.13
2018-12-21T17:02:56.014Z,98656.14
2018-12-21T17:05:28.653Z,98662.36
2018-12-21T17:08:01.301Z,98666.66
2018-12-21T17:10:33.933Z,98663.07
2018-12-21T17:13:06.540Z,98665.84
2018-12-21T17:15:39.154Z,98673.69
2018-12-21T17:18:11.732Z,98681.03
2018-12-21T17:20:44.368Z,98673.98
2018-12-21T17:23:16.949Z,98677.53
2018-12-21T17:25:49.592Z,98676.41
2018-12-21T17:28:22.177Z,98687.20
2018-12-21T17:30:54.805Z,98689.92
2018-12-21T17:33:27.399Z,98685.94
2018-12-21T17:36:00.021Z,98674.55
2018-12-21T17:38:32.601Z,98679.85
2018-12-21T17:41:05.220Z,98676.98
2018-12-21T17:43:37.919Z,98680.20
2018-12-21T17:46:10.543Z,98677.15
2018-12-21T17:48:43.198Z,98676.33
2018-12-21T17:51:15.883Z,98682.77
2018-12-21T17:53:48.474Z,98690.30
2018-12-21T17:56:29.744Z,98686.80
2018-12-21T17:58:55.724Z,98688.84
2018-12-21T18:01:28.368Z,98689.20
2018-12-21T18:04:01.143Z,98687.55
2018-12-21T18:06:33.907Z,98688.00
2018-12-21T18:09:07.099Z,98684.26
2018-12-21T18:11:39.834Z,98687.94
2018-12-21T18:14:12.406Z,98699.73
2018-12-21T18:16:45.025Z,98715.23
2018-12-21T18:19:17.616Z,98703.33
2018-12-21T18:21:50.317Z,98713.87
2018-12-21T18:24:23.062Z,98715.52
2018-12-21T18:26:55.703Z,98721.23
2018-12-21T18:29:28.334Z,98724.19
2018-12-21T18:32:01.573Z,98724.96
2018-12-21T18:34:34.197Z,98726.70
2018-12-21T18:37:06.843Z,98735.56
2018-12-21T18:39:39.472Z,98742.15
2018-12-21T18:42:12.100Z,98737.67
2018-12-21T18:44:44.685Z,98734.39
2018-12-21T18:47:17.546Z,98739.70
2018-12-21T18:49:50.119Z,98735.96
2018-12-21T18:52:22.936Z,98741.52
2018-12-21T18:54:56.287Z,98744.23
2018-12-21T18:57:29.374Z,98737.30
2018-12-21T19:00:01.973Z,98754.77
2018-12-21T19:02:34.585Z,98750.57
2018-12-21T19:05:07.308Z,98751.92
2018-12-21T19:07:39.912Z,98747.61
2018-12-21T19:10:12.519Z,98750.84
2018-12-21T19:12:45.259Z,98746.14
2018-12-21T19:15:17.838Z,98743.17
2018-12-21T19:17:50.530Z,98741.09
2018-12-21T19:20:23.164Z,98754.16
2018-12-21T19:22:55.835Z,98748.47
2018-12-21T19:25:28.470Z,98767.81
2018-12-21T19:28:01.071Z,98757.88
2018-12-21T19:30:33.748Z,98754.09
2018-12-21T19:33:06.370Z,98764.28
2018-12-21T19:35:39.039Z,98756.47
2018-12-21T19:38:11.849Z,98765.46
2018-12-21T19:40:44.443Z,98758.87
2018-12-21T19:43:17.072Z,98758.05
2018-12-21T19:45:49.654Z,98763.94
2018-12-21T19:48:22.286Z,98768.34
2018-12-21T19:50:54.863Z,98757.82
2018-12-21T19:53:27.586Z,98757.82
2018-12-21T19:56:02.374Z,98757.28
2018-12-21T19:58:34.996Z,98758.02
2018-12-21T20:01:07.585Z,98765.40
2018-12-21T20:03:40.268Z,98757.91
2018-12-21T20:06:12.847Z,98772.16
2018-12-21T20:08:45.465Z,98771.41
2018-12-21T20:11:18.212Z,98748.70
2018-12-21T20:13:50.868Z,98773.55
2018-12-21T20:16:23.577Z,98784.23
2018-12-21T20:18:56.331Z,98792.89
2018-12-21T20:21:28.904Z,98790.73
2018-12-21T20:24:01.625Z,98797.19
2018-12-21T20:26:34.208Z,98803.66
2018-12-21T20:29:06.892Z,98804.44
2018-12-21T20:31:39.505Z,98819.71
2018-12-21T20:34:12.122Z,98818.52
2018-12-21T20:36:44.688Z,98812.60
2018-12-21T20:39:17.915Z,98809.52
2018-12-21T20:41:50.501Z,98827.42
2018-12-21T20:44:23.174Z,98830.47
2018-12-21T20:46:55.828Z,98830.01
2018-12-21T20:49:28.527Z,98826.46
2018-12-21T20:52:01.111Z,98845.15
2018-12-21T20:54:33.732Z,98845.25
2018-12-21T20:57:06.381Z,98844.17
2018-12-21T20:59:39.510Z,98859.78
2018-12-21T21:02:12.080Z,98864.43
2018-12-21T21:04:44.764Z,98879.38
2018-12-21T21:07:17.350Z,98888.33
2018-12-21T21:09:49.983Z,98886.53
2018-12-21T21:12:22.556Z,98891.03
2018-12-21T21:14:56.037Z,98900.44
2018-12-21T21:17:28.604Z,98907.11
2018-12-21T21:20:01.299Z,98925.20
2018-12-21T21:22:33.878Z,98925.30
2018-12-21T21:25:07.222Z,98912.00
2018-12-21T21:27:39.809Z,98926.94
2018-12-21T21:30:15.494Z,98931.41
2018-12-21T21:32:48.071Z,98941.97
2018-12-21T21:35:20.679Z,98930.72
2018-12-21T21:37:53.274Z,98947.79
2018-12-21T21:40:25.919Z,98951.41
2018-12-21T21:42:58.549Z,98967.93
2018-12-21T21:45:31.251Z,98971.23
2018-12-21T21:48:03.850Z,98986.06
2018-12-21T21:50:36.556Z,98988.45
2018-12-21T21:53:09.137Z,99003.55
2018-12-21T21:55:41.835Z,99009.27
2018-12-21T21:58:14.425Z,98995.23
2018-12-21T22:00:47.063Z,99007.91
2018-12-21T22:03:19.643Z,99002.13
2018-12-21T22:05:52.330Z,99003.72
2018-12-21T22:08:24.932Z,99008.38
2018-12-21T22:11:01.761Z,99019.44
2018-12-21T22:13:32.344Z,99020.02
2018-12-21T22:16:05.955Z,99025.20
2018-12-21T22:18:38.527Z,99030.56
2018-12-21T22:21:11.240Z,99034.00
2018-12-21T22:23:43.859Z,99038.89
2018-12-21T22:26:16.490Z,99043.38
2018-12-21T22:28:49.588Z,99050.16
2018-12-21T22:31:24.322Z,99062.27
2018-12-21T22:33:57.989Z,99061.47
2018-12-21T22:36:30.711Z,99084.81
2018-12-21T22:39:04.342Z,99078.65
2018-12-21T22:41:37.054Z,99076.49
2018-12-21T22:44:09.711Z,99098.81
2018-12-21T22:46:42.364Z,99105.08
2018-12-21T22:49:14.931Z,99111.45
2018-12-21T22:51:47.548Z,99115.11
2018-12-21T22:54:20.144Z,99114.56
2018-12-21T22:56:52.794Z,99125.74
2018-12-21T22:59:25.439Z,99125.74
2018-12-21T23:01:58.053Z,99128.53
2018-12-21T23:04:30.682Z,99130.67
2018-12-21T23:07:03.429Z,99141.25
2018-12-21T23:09:36.142Z,99137.70
2018-12-21T23:12:08.929Z,99157.46
2018-12-21T23:14:41.551Z,99148.47
2018-12-21T23:17:14.199Z,99153.71
2018-12-21T23:19:46.777Z,99161.24
2018-12-21T23:22:19.443Z,99172.92
2018-12-21T23:24:52.025Z,99180.33
2018-12-21T23:27:24.754Z,99184.61
2018-12-21T23:29:57.349Z,99184.83
2018-12-21T23:32:30.047Z,99185.97
2018-12-21T23:35:02.647Z,99188.45
2018-12-21T23:37:35.269Z,99197.26
2018-12-21T23:40:08.040Z,99198.80
2018-12-21T23:42:41.289Z,99199.13
2018-12-21T23:45:14.644Z,99212.28
2018-12-21T23:47:48.786Z,99223.63
2018-12-21T23:50:21.397Z,99229.00
2018-12-21T23:52:54.122Z,99242.50
2018-12-21T23:55:26.701Z,99240.84
2018-12-21T23:57:59.494Z,99241.95
